Time;durP1;ratioP1;P1;durP2;ratioP2;P2;SDS_P1;SDS_P2;PMS_P1;PMS_P2;Temp;Humidity;BMP_temperature;BMP_pressure;BME280_temperature;BME280_humidity;BME280_pressure;Samples;Min_cycle;Max_cycle;Signal;HPM_P1;HPM_P2
2023/12/05 00:01:24;;;;;;;28.50;15.82;;;-1.50;99.90;;;;;;4729217;30;20056;-48
2023/12/05 00:03:51;;;;;;;28.13;16.08;;;-1.40;99.90;;;;;;4729047;30;20455;-46
2023/12/05 00:06:18;;;;;;;25.75;14.73;;;-1.40;99.90;;;;;;4732971;30;20675;-48
2023/12/05 00:08:45;;;;;;;28.05;16.20;;;-1.30;99.90;;;;;;4729492;30;20119;-44
2023/12/05 00:11:12;;;;;;;29.58;16.20;;;-1.30;99.90;;;;;;4714657;30;20110;-50
2023/12/05 00:13:40;;;;;;;23.08;14.52;;;-1.30;99.90;;;;;;4705896;30;20156;-44
2023/12/05 00:16:08;;;;;;;25.10;14.25;;;-1.20;99.90;;;;;;4721202;30;20103;-45
2023/12/05 00:18:37;;;;;;;23.20;13.90;;;-1.20;99.90;;;;;;4731106;30;20040;-44
2023/12/05 00:21:05;;;;;;;23.08;14.48;;;-1.30;99.90;;;;;;4728460;30;20052;-45
2023/12/05 00:23:32;;;;;;;23.23;14.48;;;-1.40;99.90;;;;;;4715141;30;20438;-49
2023/12/05 00:25:59;;;;;;;24.70;14.15;;;-1.40;99.90;;;;;;4730009;30;20080;-46
2023/12/05 00:28:26;;;;;;;23.38;15.07;;;-1.40;99.90;;;;;;4714836;30;20457;-47
2023/12/05 00:30:53;;;;;;;24.08;15.10;;;-1.40;99.90;;;;;;4710809;30;20049;-46
2023/12/05 00:33:21;;;;;;;23.33;14.27;;;-1.40;99.90;;;;;;4710063;30;20390;-46
2023/12/05 00:35:48;;;;;;;23.15;14.10;;;-1.50;99.90;;;;;;4726175;30;20064;-44
2023/12/05 00:38:15;;;;;;;22.52;13.43;;;-1.40;99.90;;;;;;4710809;30;20156;-47
2023/12/05 00:40:42;;;;;;;26.65;15.10;;;-1.40;99.90;;;;;;4728159;30;20467;-44
2023/12/05 00:43:09;;;;;;;23.65;14.45;;;-1.40;99.90;;;;;;4729469;30;20053;-45
2023/12/05 00:45:36;;;;;;;22.75;14.50;;;-1.40;99.90;;;;;;4729142;30;20077;-50
2023/12/05 00:48:04;;;;;;;24.88;15.52;;;-1.50;99.90;;;;;;4714028;30;20061;-46
2023/12/05 00:50:31;;;;;;;24.92;15.27;;;-1.50;99.90;;;;;;4710733;30;20490;-47
2023/12/05 00:53:06;;;;;;;22.45;14.23;;;-1.50;99.90;;;;;;4728560;30;20056;-47
2023/12/05 00:55:35;;;;;;;28.17;15.90;;;-1.50;99.90;;;;;;4729666;30;20076;-47
2023/12/05 00:58:03;;;;;;;25.60;16.02;;;-1.50;99.90;;;;;;4728483;30;20369;-48
2023/12/05 01:00:30;;;;;;;28.63;16.38;;;-1.50;99.90;;;;;;4729743;30;20054;-44
2023/12/05 01:02:57;;;;;;;29.42;16.00;;;-1.50;99.90;;;;;;4729336;30;20547;-49
2023/12/05 01:05:24;;;;;;;25.52;15.23;;;-1.50;99.90;;;;;;4734393;30;20044;-47
2023/12/05 01:07:51;;;;;;;25.50;15.85;;;-1.60;99.90;;;;;;4711386;30;20476;-46
2023/12/05 01:10:18;;;;;;;27.40;15.90;;;-1.60;99.90;;;;;;4714725;30;20080;-45
2023/12/05 01:12:46;;;;;;;27.65;15.98;;;-1.70;99.90;;;;;;4713808;30;20149;-47
2023/12/05 01:15:13;;;;;;;31.60;17.83;;;-1.60;99.90;;;;;;4731497;30;20060;-51
2023/12/05 01:17:40;;;;;;;26.95;15.93;;;-1.70;99.90;;;;;;4729439;30;20059;-47
2023/12/05 01:20:11;;;;;;;28.10;16.63;;;-1.70;99.90;;;;;;4728487;30;20055;-48
2023/12/05 01:22:38;;;;;;;29.58;17.67;;;-1.70;99.90;;;;;;4729672;30;20075;-48
2023/12/05 01:25:07;;;;;;;28.48;16.73;;;-1.70;99.90;;;;;;4729180;30;20064;-47
2023/12/05 01:27:34;;;;;;;29.25;17.85;;;-1.70;99.90;;;;;;4729522;30;20061;-46
2023/12/05 01:30:03;;;;;;;28.67;16.52;;;-1.80;99.90;;;;;;4728659;30;20060;-47
2023/12/05 01:32:30;;;;;;;30.08;16.58;;;-1.70;99.90;;;;;;4728610;30;20052;-48
2023/12/05 01:34:57;;;;;;;29.88;16.63;;;-1.70;99.90;;;;;;4729193;30;20088;-50
2023/12/05 01:37:24;;;;;;;28.85;16.60;;;-1.70;99.90;;;;;;4723285;30;20049;-43
2023/12/05 01:39:51;;;;;;;32.72;17.73;;;-1.60;99.90;;;;;;4729407;30;20048;-50
2023/12/05 01:42:18;;;;;;;29.52;17.48;;;-1.60;99.90;;;;;;4724133;30;20057;-49
2023/12/05 01:44:45;;;;;;;27.90;17.77;;;-1.60;99.90;;;;;;4713044;30;20123;-45
2023/12/05 01:47:16;;;;;;;30.10;18.15;;;-1.60;99.90;;;;;;4727374;30;20059;-48
2023/12/05 01:49:44;;;;;;;31.35;18.27;;;-1.60;99.90;;;;;;4729301;30;20524;-46
2023/12/05 01:52:12;;;;;;;29.50;18.52;;;-1.60;99.90;;;;;;4728125;30;20482;-48
2023/12/05 01:54:40;;;;;;;30.30;18.10;;;-1.60;99.90;;;;;;4729225;30;20128;-46
2023/12/05 01:57:09;;;;;;;33.35;18.75;;;-1.50;99.90;;;;;;4728314;30;20052;-45
2023/12/05 01:59:36;;;;;;;28.02;16.42;;;-1.50;99.90;;;;;;4713065;30;20094;-47
2023/12/05 02:02:03;;;;;;;27.02;16.90;;;-1.40;99.90;;;;;;4719734;30;20165;-46
2023/12/05 02:04:31;;;;;;;33.70;18.42;;;-1.50;99.90;;;;;;4712332;30;20075;-45
2023/12/05 02:07:00;;;;;;;30.17;18.42;;;-1.50;99.90;;;;;;4726931;30;20454;-47
2023/12/05 02:09:27;;;;;;;30.83;17.08;;;-1.60;99.90;;;;;;4728293;30;20419;-49
2023/12/05 02:11:54;;;;;;;31.30;18.20;;;-1.60;99.90;;;;;;4720360;30;20123;-47
2023/12/05 02:14:21;;;;;;;30.08;17.63;;;-1.50;99.90;;;;;;4729320;30;20082;-45
2023/12/05 02:17:23;;;;;;;31.42;18.77;;;-1.50;99.90;;;;;;4724284;30;20546;-48
2023/12/05 02:20:08;;;;;;;28.83;16.77;;;-1.40;99.90;;;;;;4711244;30;20053;-48
2023/12/05 02:23:02;;;;;;;31.38;17.67;;;-1.40;99.90;;;;;;4711736;30;20114;-43
2023/12/05 02:25:40;;;;;;;28.98;15.98;;;-1.30;99.90;;;;;;4716305;30;20787;-48
2023/12/05 02:28:09;;;;;;;28.83;17.85;;;-1.30;99.90;;;;;;4719756;30;20056;-47
2023/12/05 02:30:36;;;;;;;27.50;17.75;;;-1.30;99.90;;;;;;4728836;30;20073;-47
2023/12/05 02:33:03;;;;;;;30.85;17.30;;;-1.30;99.90;;;;;;4713477;30;20136;-47
2023/12/05 02:35:31;;;;;;;29.63;17.90;;;-1.30;99.90;;;;;;4729231;30;20064;-48
2023/12/05 02:38:24;;;;;;;27.45;16.67;;;-1.30;99.90;;;;;;4728080;30;20049;-48
2023/12/05 02:41:12;;;;;;;32.03;17.77;;;-1.20;99.90;;;;;;4713097;30;20095;-48
2023/12/05 02:43:46;;;;;;;30.23;17.45;;;-1.20;99.90;;;;;;4712111;30;20140;-50
2023/12/05 02:46:17;;;;;;;31.23;17.50;;;-1.10;99.90;;;;;;4724405;30;20063;-48
2023/12/05 02:48:44;;;;;;;31.50;17.77;;;-1.10;99.90;;;;;;4712264;30;20127;-47
2023/12/05 02:51:12;;;;;;;26.70;17.05;;;-1.00;99.90;;;;;;4723155;30;20053;-49
2023/12/05 02:53:39;;;;;;;29.98;16.95;;;-1.00;99.90;;;;;;4696899;30;20155;-44
2023/12/05 02:56:07;;;;;;;28.58;17.60;;;-1.00;99.90;;;;;;4727911;30;20061;-47
2023/12/05 02:58:34;;;;;;;26.67;16.40;;;-0.90;99.90;;;;;;4729170;30;20357;-49
2023/12/05 03:01:02;;;;;;;25.45;15.75;;;-0.90;99.90;;;;;;4700863;30;20060;-47
2023/12/05 03:03:29;;;;;;;28.33;16.77;;;-0.80;99.90;;;;;;4727998;30;20060;-52
2023/12/05 03:05:56;;;;;;;27.40;17.00;;;-0.80;99.90;;;;;;4734307;30;20044;-53
2023/12/05 03:08:23;;;;;;;28.80;17.63;;;-0.80;99.90;;;;;;4703783;30;20053;-53
2023/12/05 03:10:50;;;;;;;31.30;17.88;;;-0.80;99.90;;;;;;4730405;30;20435;-53
2023/12/05 03:13:29;;;;;;;30.63;17.67;;;-0.70;99.90;;;;;;4730672;30;20056;-57
2023/12/05 03:15:56;;;;;;;31.30;18.42;;;-0.60;99.90;;;;;;4730668;30;20411;-54
2023/12/05 03:18:24;;;;;;;28.27;17.98;;;-0.50;99.90;;;;;;4730445;30;20140;-56
2023/12/05 03:20:52;;;;;;;29.58;16.80;;;-0.50;99.90;;;;;;4732007;30;20163;-53
2023/12/05 03:23:22;;;;;;;27.98;17.58;;;-0.50;99.90;;;;;;4711658;30;20060;-53
2023/12/05 03:25:49;;;;;;;28.88;17.48;;;-0.40;99.90;;;;;;4730369;30;20079;-54
2023/12/05 03:28:16;;;;;;;33.00;17.38;;;-0.40;99.90;;;;;;4711078;30;20391;-55
2023/12/05 03:30:43;;;;;;;28.95;16.85;;;-0.40;99.90;;;;;;4728958;30;20066;-51
2023/12/05 03:33:10;;;;;;;28.60;17.08;;;-0.30;99.90;;;;;;4710398;30;20060;-51
2023/12/05 03:35:37;;;;;;;27.20;16.40;;;-0.20;99.90;;;;;;4727789;30;20061;-52
2023/12/05 03:38:04;;;;;;;28.70;17.15;;;-0.20;99.90;;;;;;4713802;30;20139;-49
2023/12/05 03:40:32;;;;;;;27.90;16.98;;;-0.20;99.90;;;;;;4731026;30;20106;-50
2023/12/05 03:42:59;;;;;;;28.42;16.88;;;-0.10;99.90;;;;;;4714856;30;20056;-51
2023/12/05 03:45:26;;;;;;;29.27;17.52;;;-0.10;99.90;;;;;;4731883;30;20422;-55
2023/12/05 03:47:53;;;;;;;29.92;17.73;;;-0.10;99.90;;;;;;4730317;30;20128;-47
2023/12/05 03:50:21;;;;;;;29.13;18.25;;;-0.10;99.90;;;;;;4726939;30;20049;-51
2023/12/05 03:52:48;;;;;;;32.80;19.23;;;0.00;99.90;;;;;;4730154;30;20090;-55
2023/12/05 03:55:15;;;;;;;31.08;18.33;;;0.00;99.90;;;;;;4725634;30;20064;-55
2023/12/05 03:57:42;;;;;;;30.88;17.65;;;0.00;99.90;;;;;;4730691;30;20124;-49
2023/12/05 04:00:10;;;;;;;27.67;17.15;;;0.10;99.90;;;;;;4709906;30;20422;-54
2023/12/05 04:02:40;;;;;;;31.20;18.13;;;0.10;99.90;;;;;;4730157;30;20048;-51
2023/12/05 04:05:10;;;;;;;28.45;17.95;;;0.10;99.90;;;;;;4728952;30;20583;-55
2023/12/05 04:07:37;;;;;;;28.88;17.17;;;0.10;99.90;;;;;;4717473;30;20122;-53
2023/12/05 04:10:05;;;;;;;29.88;16.98;;;0.10;99.90;;;;;;4727751;30;20143;-53
2023/12/05 04:12:32;;;;;;;32.78;18.17;;;0.10;99.90;;;;;;4719594;30;20481;-51
2023/12/05 04:14:59;;;;;;;29.85;17.55;;;0.10;99.90;;;;;;4729871;30;20064;-51
2023/12/05 04:17:27;;;;;;;29.90;18.60;;;0.00;99.90;;;;;;4719349;30;20053;-49
2023/12/05 04:19:54;;;;;;;31.23;18.13;;;0.00;99.90;;;;;;4708183;30;20060;-51
2023/12/05 04:22:21;;;;;;;31.45;19.25;;;0.00;99.90;;;;;;4729822;30;20048;-53
2023/12/05 04:24:48;;;;;;;28.30;18.05;;;0.10;99.90;;;;;;4730049;30;20121;-55
2023/12/05 04:27:15;;;;;;;36.35;19.25;;;0.10;99.90;;;;;;4715042;30;20128;-51
2023/12/05 04:29:42;;;;;;;30.02;19.02;;;0.00;99.90;;;;;;4724545;30;20044;-50
2023/12/05 04:32:10;;;;;;;33.83;18.88;;;0.00;99.90;;;;;;4729742;30;20048;-50
2023/12/05 04:34:41;;;;;;;30.92;18.05;;;0.00;99.90;;;;;;4733334;30;20067;-51
2023/12/05 04:37:09;;;;;;;26.02;16.75;;;0.00;99.90;;;;;;4734629;30;20571;-56
2023/12/05 04:39:36;;;;;;;30.85;17.52;;;0.00;99.90;;;;;;4734575;30;20057;-54
2023/12/05 04:42:03;;;;;;;36.28;20.40;;;0.10;99.90;;;;;;4713225;30;20052;-50
2023/12/05 04:44:32;;;;;;;32.28;19.73;;;0.10;99.90;;;;;;4726806;30;20053;-53
2023/12/05 04:46:59;;;;;;;34.90;19.00;;;0.10;99.90;;;;;;4713441;30;20056;-50
2023/12/05 04:49:26;;;;;;;35.33;19.55;;;0.10;99.90;;;;;;4730969;30;20052;-50
2023/12/05 04:51:54;;;;;;;32.85;19.40;;;0.10;99.90;;;;;;4709805;30;20064;-52
2023/12/05 04:54:21;;;;;;;34.63;20.30;;;0.20;99.90;;;;;;4719334;30;20100;-46
2023/12/05 04:56:48;;;;;;;32.22;19.60;;;0.10;99.90;;;;;;4713510;30;20476;-53
2023/12/05 04:59:15;;;;;;;36.45;20.42;;;0.10;99.90;;;;;;4729792;30;20051;-51
2023/12/05 05:01:43;;;;;;;37.80;20.52;;;0.10;99.90;;;;;;4728795;30;20048;-53
2023/12/05 05:04:10;;;;;;;38.90;20.05;;;0.10;99.90;;;;;;4716054;30;20044;-47
2023/12/05 05:06:38;;;;;;;35.30;20.33;;;0.10;99.90;;;;;;4731054;30;20059;-49
2023/12/05 05:09:05;;;;;;;33.92;21.27;;;0.00;99.90;;;;;;4735062;30;20203;-48
2023/12/05 05:11:33;;;;;;;33.47;21.40;;;0.00;99.90;;;;;;4717321;30;20309;-49
2023/12/05 05:14:00;;;;;;;35.85;20.73;;;0.00;99.90;;;;;;4713587;30;20069;-50
2023/12/05 05:16:29;;;;;;;32.40;19.63;;;0.00;99.90;;;;;;4725755;30;20108;-49
2023/12/05 05:18:56;;;;;;;35.78;20.33;;;0.00;99.90;;;;;;4727281;30;20060;-48
2023/12/05 05:21:23;;;;;;;35.88;22.67;;;0.10;99.90;;;;;;4728135;30;20115;-51
2023/12/05 05:23:51;;;;;;;33.45;21.05;;;0.10;99.90;;;;;;4717407;30;20126;-48
2023/12/05 05:26:18;;;;;;;35.00;20.83;;;0.30;99.90;;;;;;4728062;30;20049;-50
2023/12/05 05:28:45;;;;;;;36.28;20.92;;;0.30;99.90;;;;;;4714624;30;20057;-50
2023/12/05 05:31:12;;;;;;;36.83;21.13;;;0.30;99.90;;;;;;4724151;30;20106;-48
2023/12/05 05:33:39;;;;;;;34.83;21.33;;;0.40;99.90;;;;;;4728909;30;20132;-52
2023/12/05 05:36:07;;;;;;;34.95;21.52;;;0.50;99.90;;;;;;4714228;30;20057;-48
2023/12/05 05:38:35;;;;;;;36.22;21.10;;;0.50;99.90;;;;;;4729200;30;20037;-47
2023/12/05 05:41:06;;;;;;;36.13;20.52;;;0.50;99.90;;;;;;4713529;30;20151;-47
2023/12/05 05:43:34;;;;;;;34.92;21.13;;;0.50;99.90;;;;;;4729292;30;20059;-49
2023/12/05 05:46:01;;;;;;;37.72;21.77;;;0.50;99.90;;;;;;4725895;30;20053;-48
2023/12/05 05:48:29;;;;;;;37.28;21.30;;;0.50;99.90;;;;;;4729395;30;20052;-47
2023/12/05 05:50:56;;;;;;;38.75;21.92;;;0.40;99.90;;;;;;4729720;30;20396;-49
2023/12/05 05:53:23;;;;;;;35.70;22.05;;;0.50;99.90;;;;;;4729315;30;20435;-48
2023/12/05 05:55:50;;;;;;;35.67;20.10;;;0.50;99.90;;;;;;4727349;30;20057;-49
2023/12/05 05:58:18;;;;;;;35.50;20.90;;;0.50;99.90;;;;;;4711684;30;20118;-49
2023/12/05 06:00:45;;;;;;;44.47;21.65;;;0.50;99.90;;;;;;4716692;30;20045;-47
2023/12/05 06:03:13;;;;;;;35.30;21.27;;;0.50;99.90;;;;;;4723229;30;20449;-48
2023/12/05 06:05:40;;;;;;;36.33;21.48;;;0.40;99.90;;;;;;4723728;30;20051;-49
2023/12/05 06:08:08;;;;;;;40.22;21.75;;;0.30;99.90;;;;;;4727255;30;20056;-45
2023/12/05 06:10:35;;;;;;;38.15;21.38;;;0.30;99.90;;;;;;4728272;30;20500;-46
2023/12/05 06:13:02;;;;;;;40.03;22.48;;;0.30;99.90;;;;;;4727436;30;20143;-49
2023/12/05 06:15:30;;;;;;;40.20;22.33;;;0.10;99.90;;;;;;4729757;30;20094;-49
2023/12/05 06:17:58;;;;;;;36.60;21.23;;;0.00;99.90;;;;;;4711832;30;20095;-49
2023/12/05 06:20:25;;;;;;;37.47;21.50;;;0.00;99.90;;;;;;4728462;30;20075;-45
2023/12/05 06:22:52;;;;;;;41.45;22.27;;;0.00;99.90;;;;;;4725950;30;20130;-48
2023/12/05 06:25:19;;;;;;;39.15;21.92;;;-0.10;99.90;;;;;;4724529;30;20168;-48
2023/12/05 06:27:46;;;;;;;39.25;22.40;;;-0.10;99.90;;;;;;4701836;30;20057;-44
2023/12/05 06:30:14;;;;;;;41.78;21.90;;;-0.20;99.90;;;;;;4724443;30;20149;-45
2023/12/05 06:32:51;;;;;;;39.58;21.95;;;-0.20;99.90;;;;;;4724309;30;20081;-44
2023/12/05 06:35:18;;;;;;;40.53;22.65;;;-0.20;99.90;;;;;;4706124;30;20118;-49
2023/12/05 06:37:45;;;;;;;41.83;22.90;;;-0.20;99.90;;;;;;4724961;30;20060;-50
2023/12/05 06:40:13;;;;;;;37.78;21.73;;;-0.30;99.90;;;;;;4727387;30;20078;-50
2023/12/05 06:42:40;;;;;;;41.83;22.50;;;-0.20;99.90;;;;;;4723802;30;20095;-45
2023/12/05 06:45:08;;;;;;;39.42;22.30;;;-0.30;99.90;;;;;;4725264;30;20292;-52
2023/12/05 06:47:36;;;;;;;37.90;21.98;;;-0.30;99.90;;;;;;4726141;30;20480;-49
2023/12/05 06:50:10;;;;;;;39.20;22.77;;;-0.30;99.90;;;;;;4728495;30;20115;-46
2023/12/05 06:52:39;;;;;;;46.65;23.42;;;-0.30;99.90;;;;;;4727928;30;20114;-45
2023/12/05 06:55:08;;;;;;;40.70;23.27;;;-0.30;99.90;;;;;;4728505;30;20064;-45
2023/12/05 06:57:35;;;;;;;40.85;23.17;;;-0.30;99.90;;;;;;4713559;30;20145;-45
2023/12/05 07:00:03;;;;;;;39.05;23.25;;;-0.30;99.90;;;;;;4709567;30;20060;-48
2023/12/05 07:02:31;;;;;;;44.78;24.15;;;-0.30;99.90;;;;;;4724184;30;20044;-45
2023/12/05 07:04:58;;;;;;;39.63;22.17;;;-0.30;99.90;;;;;;4722978;30;20481;-44
2023/12/05 07:07:26;;;;;;;42.55;23.08;;;-0.30;99.90;;;;;;4729757;30;20607;-49
2023/12/05 07:09:53;;;;;;;41.55;23.90;;;-0.40;99.90;;;;;;4722307;30;20128;-48
2023/12/05 07:12:21;;;;;;;42.08;23.65;;;-0.40;99.90;;;;;;4710898;30;20472;-48
2023/12/05 07:14:48;;;;;;;43.45;24.80;;;-0.40;99.90;;;;;;4718620;30;20754;-48
2023/12/05 07:17:15;;;;;;;37.00;22.00;;;-0.40;99.90;;;;;;4707913;30;20052;-46
2023/12/05 07:19:42;;;;;;;42.97;24.27;;;-0.40;99.90;;;;;;4724327;30;20507;-46
2023/12/05 07:22:10;;;;;;;38.33;22.70;;;-0.40;99.90;;;;;;4727381;30;20135;-45
2023/12/05 07:24:38;;;;;;;43.50;25.83;;;-0.40;99.90;;;;;;4728509;30;20865;-45
2023/12/05 07:27:06;;;;;;;42.42;22.55;;;-0.40;99.90;;;;;;4712594;30;20443;-47
2023/12/05 07:29:34;;;;;;;42.08;22.33;;;-0.30;99.90;;;;;;4723589;30;20053;-45
2023/12/05 07:32:01;;;;;;;41.97;23.45;;;-0.20;99.90;;;;;;4711653;30;20179;-49
2023/12/05 07:34:28;;;;;;;44.53;25.00;;;-0.20;99.90;;;;;;4727602;30;20449;-45
2023/12/05 07:36:55;;;;;;;39.72;24.08;;;-0.20;99.90;;;;;;4727948;30;20531;-47
2023/12/05 07:39:25;;;;;;;42.53;23.95;;;-0.10;99.90;;;;;;4724736;30;20059;-51
2023/12/05 07:41:52;;;;;;;39.85;24.63;;;-0.10;99.90;;;;;;4727314;30;20056;-47
2023/12/05 07:44:19;;;;;;;43.72;23.25;;;0.00;99.90;;;;;;4711577;30;20057;-53
2023/12/05 07:46:47;;;;;;;38.78;23.33;;;0.00;99.90;;;;;;4730530;30;20060;-45
2023/12/05 07:49:14;;;;;;;39.88;23.98;;;0.00;99.90;;;;;;4731518;30;20064;-45
2023/12/05 07:51:42;;;;;;;36.17;22.42;;;0.10;99.90;;;;;;4726835;30;20063;-46
2023/12/05 07:54:09;;;;;;;42.25;22.05;;;0.20;99.90;;;;;;4731405;30;20211;-48
2023/12/05 07:56:36;;;;;;;39.10;22.40;;;0.30;99.90;;;;;;4715280;30;20055;-48
2023/12/05 07:59:03;;;;;;;39.65;22.55;;;0.40;99.90;;;;;;4712298;30;20052;-46
2023/12/05 08:01:31;;;;;;;36.15;22.00;;;0.40;99.90;;;;;;4732452;30;20055;-52
2023/12/05 08:04:01;;;;;;;35.33;20.92;;;0.50;99.90;;;;;;4726213;30;20083;-48
2023/12/05 08:06:28;;;;;;;40.15;21.88;;;0.50;99.90;;;;;;4728049;30;20126;-49
2023/12/05 08:08:56;;;;;;;66.47;33.20;;;0.60;99.90;;;;;;4730749;30;20829;-50
2023/12/05 08:11:23;;;;;;;39.15;22.25;;;0.70;99.90;;;;;;4712027;30;20059;-49
2023/12/05 08:13:50;;;;;;;34.30;20.75;;;0.80;99.90;;;;;;4731608;30;20078;-49
2023/12/05 08:16:17;;;;;;;35.85;20.75;;;1.00;99.90;;;;;;4729088;30;20045;-47
2023/12/05 08:18:45;;;;;;;34.20;20.15;;;1.10;99.90;;;;;;4728297;30;20060;-49
2023/12/05 08:21:12;;;;;;;37.45;19.88;;;1.20;99.90;;;;;;4714303;30;20049;-46
2023/12/05 08:23:39;;;;;;;35.15;19.80;;;1.30;99.90;;;;;;4715155;30;20049;-48
2023/12/05 08:26:07;;;;;;;35.78;22.00;;;1.50;99.90;;;;;;4710331;30;20051;-48
2023/12/05 08:28:34;;;;;;;33.28;19.60;;;1.50;99.90;;;;;;4730357;30;20099;-44
2023/12/05 08:31:02;;;;;;;29.52;18.95;;;1.70;99.90;;;;;;4730154;30;20057;-47
2023/12/05 08:33:29;;;;;;;36.53;20.35;;;1.80;99.90;;;;;;4729941;30;20076;-49
2023/12/05 08:35:56;;;;;;;30.48;19.10;;;1.90;99.90;;;;;;4714361;30;20123;-49
2023/12/05 08:38:24;;;;;;;36.83;20.20;;;1.90;99.90;;;;;;4719440;30;20114;-52
2023/12/05 08:40:51;;;;;;;35.33;20.30;;;1.90;99.90;;;;;;4729247;30;20049;-51
2023/12/05 08:43:18;;;;;;;35.95;19.77;;;2.00;99.90;;;;;;4721593;30;20439;-47
2023/12/05 08:45:46;;;;;;;34.72;19.65;;;2.00;99.90;;;;;;4711965;30;20045;-47
2023/12/05 08:48:13;;;;;;;33.05;19.00;;;1.90;99.90;;;;;;4728765;30;20052;-50
2023/12/05 08:50:41;;;;;;;33.67;19.73;;;2.10;99.90;;;;;;4730850;30;20071;-47
2023/12/05 08:53:09;;;;;;;32.80;18.33;;;2.20;99.90;;;;;;4729436;30;20053;-49
2023/12/05 08:55:36;;;;;;;32.03;18.38;;;2.30;99.90;;;;;;4729058;30;20072;-50
2023/12/05 08:58:04;;;;;;;31.17;18.60;;;2.30;99.90;;;;;;4713137;30;20056;-49
2023/12/05 09:00:32;;;;;;;34.13;20.25;;;2.40;99.90;;;;;;4728859;30;20434;-46
2023/12/05 09:03:00;;;;;;;51.40;29.38;;;2.40;99.90;;;;;;4711649;30;20155;-47
2023/12/05 09:05:28;;;;;;;32.90;19.23;;;2.50;99.90;;;;;;4723480;30;20424;-47
2023/12/05 09:07:55;;;;;;;31.20;18.65;;;2.60;99.90;;;;;;4728452;30;20049;-48
2023/12/05 09:10:22;;;;;;;29.83;17.15;;;2.80;99.90;;;;;;4730729;30;20060;-52
2023/12/05 09:12:50;;;;;;;30.52;18.27;;;2.90;99.90;;;;;;4727786;30;20150;-45
2023/12/05 09:15:17;;;;;;;28.65;17.70;;;3.10;99.90;;;;;;4732695;30;20476;-48
2023/12/05 09:17:44;;;;;;;28.85;17.70;;;3.20;99.90;;;;;;4698088;30;20063;-48
2023/12/05 09:20:12;;;;;;;31.92;18.30;;;3.20;99.90;;;;;;4713711;30;20060;-48
2023/12/05 09:22:40;;;;;;;28.02;17.25;;;3.40;99.90;;;;;;4726154;30;20063;-46
2023/12/05 09:25:07;;;;;;;27.05;17.23;;;3.40;99.90;;;;;;4729054;30;20061;-46
2023/12/05 09:27:35;;;;;;;30.55;17.85;;;3.30;99.90;;;;;;4730000;30;21009;-47
2023/12/05 09:30:02;;;;;;;27.17;17.40;;;3.50;99.90;;;;;;4729277;30;20123;-45
2023/12/05 09:32:31;;;;;;;28.08;17.15;;;3.60;99.90;;;;;;4732087;30;20059;-49
2023/12/05 09:34:59;;;;;;;31.30;17.75;;;3.80;99.90;;;;;;4727501;30;20071;-53
2023/12/05 09:37:27;;;;;;;26.35;16.48;;;3.80;99.90;;;;;;4713615;30;20531;-48
2023/12/05 09:39:54;;;;;;;30.77;16.95;;;4.10;99.90;;;;;;4715636;30;20559;-50
2023/12/05 09:42:25;;;;;;;27.98;17.30;;;4.30;99.90;;;;;;4731990;30;20063;-50
2023/12/05 09:44:54;;;;;;;26.50;16.55;;;4.40;99.90;;;;;;4730008;30;20045;-48
2023/12/05 09:47:21;;;;;;;26.35;16.63;;;4.40;99.90;;;;;;4729000;30;20492;-48
2023/12/05 09:49:49;;;;;;;30.13;16.95;;;4.50;99.90;;;;;;4719361;30;20161;-46
2023/12/05 09:52:17;;;;;;;31.67;18.33;;;4.60;99.90;;;;;;4726505;30;20110;-47
2023/12/05 09:54:47;;;;;;;30.42;18.38;;;4.60;99.90;;;;;;4730305;30;20059;-47
2023/12/05 09:57:14;;;;;;;28.92;17.15;;;4.80;99.90;;;;;;4698952;30;20547;-46
2023/12/05 09:59:41;;;;;;;27.08;17.25;;;4.70;99.90;;;;;;4717516;30;20095;-50
2023/12/05 10:02:10;;;;;;;27.45;16.77;;;4.70;99.90;;;;;;4713808;30;20143;-46
2023/12/05 10:04:44;;;;;;;28.00;17.05;;;4.50;99.90;;;;;;4717223;30;20106;-49
2023/12/05 10:07:12;;;;;;;25.30;15.93;;;4.50;99.90;;;;;;4727987;30;20052;-46
2023/12/05 10:09:42;;;;;;;29.83;16.98;;;4.40;99.90;;;;;;4718103;30;20045;-45
2023/12/05 10:12:11;;;;;;;26.83;16.95;;;4.10;99.90;;;;;;4727892;30;20060;-50
2023/12/05 10:14:40;;;;;;;27.42;17.50;;;4.00;99.90;;;;;;4718943;30;20056;-45
2023/12/05 10:17:08;;;;;;;32.88;17.33;;;4.10;99.90;;;;;;4724904;30;20555;-50
2023/12/05 10:19:36;;;;;;;26.88;16.85;;;4.10;99.90;;;;;;4722383;30;20053;-48
2023/12/05 10:22:04;;;;;;;28.98;16.67;;;4.20;99.90;;;;;;4730784;30;20044;-45
2023/12/05 10:24:48;;;;;;;30.75;17.60;;;4.40;99.90;;;;;;4725806;30;20049;-47
2023/12/05 10:27:16;;;;;;;27.25;16.35;;;4.50;99.90;;;;;;4722581;30;20053;-47
2023/12/05 10:29:44;;;;;;;28.70;15.95;;;4.70;99.90;;;;;;4726911;30;20380;-47
2023/12/05 10:32:13;;;;;;;26.55;16.80;;;4.90;99.90;;;;;;4710957;30;20095;-45
2023/12/05 10:35:01;;;;;;;27.70;16.25;;;4.90;99.90;;;;;;4730384;30;20132;-49
2023/12/05 10:37:29;;;;;;;26.48;17.00;;;5.10;99.90;;;;;;4727604;30;20063;-47
2023/12/05 10:39:58;;;;;;;27.27;15.90;;;5.10;99.90;;;;;;4723083;30;20577;-48
2023/12/05 10:42:29;;;;;;;31.58;18.38;;;5.30;99.90;;;;;;4727858;30;20053;-45
2023/12/05 10:44:57;;;;;;;25.15;15.85;;;5.30;99.90;;;;;;4717186;30;20550;-48
2023/12/05 10:47:26;;;;;;;27.77;16.52;;;5.60;99.90;;;;;;4727806;30;20507;-46
2023/12/05 10:49:54;;;;;;;25.73;16.10;;;5.80;99.90;;;;;;4726852;30;20619;-48
2023/12/05 10:52:22;;;;;;;26.65;16.15;;;6.00;99.90;;;;;;4723515;30;20099;-45
2023/12/05 10:54:57;;;;;;;26.83;15.80;;;5.90;99.90;;;;;;4722864;30;20060;-46
2023/12/05 10:57:33;;;;;;;28.77;16.52;;;6.10;99.90;;;;;;4715751;30;20056;-48
2023/12/05 11:00:05;;;;;;;23.10;15.27;;;6.20;99.90;;;;;;4696420;30;20056;-51
2023/12/05 11:02:37;;;;;;;26.33;16.40;;;6.10;99.90;;;;;;4723049;30;20543;-48
2023/12/05 11:05:06;;;;;;;24.15;15.18;;;6.30;99.90;;;;;;4680184;30;20501;-46
2023/12/05 11:07:33;;;;;;;29.75;17.45;;;6.30;99.90;;;;;;4724997;30;20069;-50
2023/12/05 11:10:00;;;;;;;25.58;15.18;;;6.00;99.90;;;;;;4726979;30;20057;-48
2023/12/05 11:12:28;;;;;;;27.48;16.90;;;5.80;99.90;;;;;;4730071;30;20058;-45
2023/12/05 11:14:58;;;;;;;27.45;16.02;;;5.70;99.90;;;;;;4727592;30;20061;-49
2023/12/05 11:17:31;;;;;;;24.67;15.57;;;5.60;99.90;;;;;;4723551;30;20055;-51
2023/12/05 11:20:24;;;;;;;22.50;15.00;;;5.60;99.90;;;;;;4730421;30;20056;-46
2023/12/05 11:23:15;;;;;;;23.00;16.08;;;5.60;99.90;;;;;;4715862;30;20132;-45
2023/12/05 11:26:13;;;;;;;24.88;16.10;;;5.50;99.90;;;;;;4729081;30;20148;-50
2023/12/05 11:28:52;;;;;;;26.90;16.13;;;5.60;99.90;;;;;;4727515;30;20041;-52
2023/12/05 11:31:43;;;;;;;27.33;15.90;;;5.60;99.90;;;;;;4727926;30;20153;-51
2023/12/05 11:34:35;;;;;;;24.92;14.80;;;5.70;99.90;;;;;;4727282;30;20059;-52
2023/12/05 11:37:15;;;;;;;22.60;14.68;;;6.00;99.90;;;;;;4714497;30;20430;-49
2023/12/05 11:39:43;;;;;;;22.13;14.02;;;6.20;99.90;;;;;;4715098;30;20081;-54
2023/12/05 11:42:12;;;;;;;23.13;14.85;;;6.20;99.90;;;;;;4712851;30;20107;-50
2023/12/05 11:44:40;;;;;;;22.20;14.75;;;6.20;99.90;;;;;;4729865;30;20080;-51
2023/12/05 11:47:16;;;;;;;26.75;15.73;;;6.30;99.90;;;;;;4730283;30;20049;-52
2023/12/05 11:50:02;;;;;;;26.55;15.68;;;6.10;99.90;;;;;;4730995;30;20072;-45
2023/12/05 11:52:39;;;;;;;26.15;16.00;;;5.90;99.90;;;;;;4728533;30;20048;-49
2023/12/05 11:55:08;;;;;;;24.77;14.90;;;5.90;99.90;;;;;;4728805;30;20342;-44
2023/12/05 11:57:36;;;;;;;24.10;15.13;;;6.20;99.90;;;;;;4730431;30;20049;-46
2023/12/05 12:00:04;;;;;;;22.20;15.35;;;6.40;99.90;;;;;;4708146;30;20060;-53
2023/12/05 12:02:42;;;;;;;22.85;13.70;;;6.70;99.90;;;;;;4728644;30;20114;-49
2023/12/05 12:05:11;;;;;;;24.90;14.43;;;7.00;99.90;;;;;;4731385;30;20083;-56
2023/12/05 12:07:50;;;;;;;23.77;15.23;;;7.40;99.90;;;;;;4731313;30;20053;-57
2023/12/05 12:10:18;;;;;;;22.52;14.15;;;7.80;99.90;;;;;;4727388;30;20044;-53
2023/12/05 12:12:46;;;;;;;22.25;14.05;;;8.10;99.90;;;;;;4725797;30;20203;-51
2023/12/05 12:15:21;;;;;;;21.75;14.82;;;8.50;99.90;;;;;;4728492;30;20059;-50
2023/12/05 12:17:49;;;;;;;23.52;14.10;;;8.70;99.90;;;;;;4729866;30;20065;-50
2023/12/05 12:20:17;;;;;;;27.48;14.48;;;8.80;99.90;;;;;;4729782;30;20036;-49
2023/12/05 12:22:49;;;;;;;21.30;13.40;;;8.60;99.90;;;;;;4727990;30;20131;-52
2023/12/05 12:25:17;;;;;;;24.38;14.23;;;8.70;99.90;;;;;;4727692;30;20052;-47
2023/12/05 12:27:45;;;;;;;21.92;13.63;;;9.50;99.90;;;;;;4727480;30;20053;-49
2023/12/05 12:30:15;;;;;;;20.38;13.77;;;10.20;99.90;;;;;;4729244;30;20525;-52
2023/12/05 12:32:57;;;;;;;19.42;13.25;;;10.30;99.90;;;;;;4709373;30;20140;-48
2023/12/05 12:35:28;;;;;;;20.13;13.10;;;10.10;99.90;;;;;;4725018;30;20048;-56
2023/12/05 12:37:56;;;;;;;21.00;13.63;;;10.10;99.90;;;;;;4730402;30;20045;-52
2023/12/05 12:40:24;;;;;;;19.73;13.43;;;10.20;99.90;;;;;;4729865;30;20044;-51
2023/12/05 12:42:54;;;;;;;19.48;13.95;;;10.10;99.90;;;;;;4727571;30;20163;-47